createdAt,value
2024-02-06T00:04:43.391Z,5.67
2024-02-06T00:09:46.261Z,6.43
2024-02-06T00:14:50.149Z,6.03
2024-02-06T00:19:52.751Z,7.03
2024-02-06T00:24:55.352Z,7.18
2024-02-06T00:29:59.239Z,6.32
2024-02-06T00:35:01.910Z,6.87
2024-02-06T00:40:05.381Z,6.97
2024-02-06T00:45:10.351Z,7.25
2024-02-06T00:50:13.336Z,7.13
2024-02-06T00:55:16.554Z,7.10
2024-02-06T01:00:20.859Z,6.97
2024-02-06T01:05:23.590Z,6.07
2024-02-06T01:10:26.234Z,6.17
2024-02-06T01:15:30.196Z,6.75
2024-02-06T01:20:32.751Z,6.80
2024-02-06T01:25:35.791Z,6.50
2024-02-06T01:30:39.826Z,6.63
2024-02-06T01:35:42.419Z,6.60
2024-02-06T01:40:45.214Z,6.88
2024-02-06T01:45:52.303Z,6.90
2024-02-06T01:50:55.476Z,7.00
2024-02-06T01:55:58.232Z,6.43
2024-02-06T02:01:03.050Z,6.53
2024-02-06T02:06:06.456Z,6.30
2024-02-06T02:11:09.562Z,7.68
2024-02-06T02:16:13.635Z,8.67
2024-02-06T02:21:17.775Z,7.70
2024-02-06T02:26:20.416Z,7.72
2024-02-06T02:31:24.609Z,7.25
2024-02-06T02:36:28.492Z,7.70
2024-02-06T02:41:31.031Z,8.35
2024-02-06T02:46:33.663Z,8.23
2024-02-06T02:51:37.613Z,8.13
2024-02-06T02:56:40.150Z,8.50
2024-02-06T03:01:42.919Z,7.95
2024-02-06T03:06:46.912Z,8.57
2024-02-06T03:11:49.485Z,8.97
2024-02-06T03:16:52.062Z,7.50
2024-02-06T03:21:56.582Z,7.88
2024-02-06T03:26:59.307Z,7.53
2024-02-06T03:32:01.874Z,7.70
2024-02-06T03:37:05.918Z,6.55
2024-02-06T03:42:08.517Z,6.57
2024-02-06T03:47:11.054Z,7.45
2024-02-06T03:52:15.720Z,8.48
2024-02-06T03:57:21.379Z,7.87
2024-02-06T04:02:24.382Z,7.77
2024-02-06T04:07:28.380Z,7.05
2024-02-06T04:12:30.988Z,7.40
2024-02-06T04:17:33.533Z,6.60
2024-02-06T04:22:37.553Z,7.63
2024-02-06T04:27:40.131Z,7.50
2024-02-06T04:32:42.735Z,7.80
2024-02-06T04:37:46.765Z,6.72
2024-02-06T04:42:49.354Z,7.25
2024-02-06T04:47:52.212Z,7.50
2024-02-06T04:53:01.048Z,6.77
2024-02-06T04:58:03.873Z,7.65
2024-02-06T05:03:07.482Z,7.38
2024-02-06T05:08:11.459Z,5.80
2024-02-06T05:13:14.097Z,6.85
2024-02-06T05:18:16.725Z,6.93
2024-02-06T05:23:20.701Z,7.20
2024-02-06T05:28:23.279Z,7.20
2024-02-06T05:33:25.960Z,7.43
2024-02-06T05:38:29.955Z,6.77
2024-02-06T05:43:32.535Z,6.07
2024-02-06T05:48:36.660Z,7.75
2024-02-06T05:53:41.258Z,7.45
2024-02-06T05:58:43.929Z,5.53
2024-02-06T06:03:48.123Z,7.18
2024-02-06T06:08:52.005Z,6.80
2024-02-06T06:13:54.811Z,7.33
2024-02-06T06:18:57.531Z,7.20
2024-02-06T06:24:01.522Z,7.35
2024-02-06T06:29:04.675Z,7.20
2024-02-06T06:34:07.371Z,6.37
2024-02-06T06:39:12.417Z,7.75
2024-02-06T06:44:15.121Z,6.93
2024-02-06T06:49:17.747Z,6.20
2024-02-06T06:54:21.655Z,7.43
2024-02-06T06:59:24.222Z,7.03
2024-02-06T07:04:27.586Z,6.80
2024-02-06T07:09:31.739Z,7.38
2024-02-06T07:14:36.274Z,6.82
2024-02-06T07:19:38.949Z,7.23
2024-02-06T07:24:42.950Z,7.37
2024-02-06T07:29:45.524Z,6.10
2024-02-06T07:34:48.137Z,6.63
2024-02-06T07:39:52.075Z,6.47
2024-02-06T07:44:54.622Z,7.10
2024-02-06T07:49:57.177Z,5.57
2024-02-06T07:55:01.136Z,6.87
2024-02-06T08:00:05.976Z,6.65
2024-02-06T08:05:09.112Z,6.28
2024-02-06T08:10:13.637Z,6.13
2024-02-06T08:15:16.702Z,6.17
2024-02-06T08:20:21.236Z,6.18
2024-02-06T08:25:27.114Z,6.55
2024-02-06T08:30:29.857Z,5.73
2024-02-06T08:35:32.514Z,6.97
2024-02-06T08:40:36.454Z,6.28
2024-02-06T08:45:39.306Z,6.23
2024-02-06T08:50:44.192Z,5.72
2024-02-06T08:55:49.158Z,5.45
2024-02-06T09:00:52.099Z,4.50
2024-02-06T09:05:54.906Z,5.03
2024-02-06T09:10:58.892Z,4.90
2024-02-06T09:16:02.886Z,4.53
2024-02-06T09:21:06.917Z,4.57
2024-02-06T09:26:12.684Z,4.40
2024-02-06T09:31:15.330Z,4.07
2024-02-06T09:36:18.673Z,4.20
2024-02-06T09:41:23.690Z,4.65
2024-02-06T09:46:26.606Z,3.97
2024-02-06T09:51:33.550Z,4.20
2024-02-06T09:56:38.888Z,3.63
2024-02-06T10:01:44.996Z,4.10
2024-02-06T10:06:50.056Z,4.25
2024-02-06T10:11:56.420Z,3.70
2024-02-06T10:16:59.272Z,3.83
2024-02-06T10:22:02.962Z,3.20
2024-02-06T10:27:07.202Z,3.13
2024-02-06T10:32:17.058Z,3.03
2024-02-06T10:37:20.755Z,3.42
2024-02-06T10:42:56.765Z,2.93
2024-02-06T10:47:56.842Z,3.23
2024-02-06T10:53:00.079Z,3.13
2024-02-06T10:58:08.144Z,3.00
2024-02-06T11:03:12.027Z,2.47
2024-02-06T11:08:16.209Z,2.60
2024-02-06T11:13:27.125Z,2.22
2024-02-06T11:18:34.172Z,2.80
2024-02-06T11:23:37.493Z,2.20
2024-02-06T11:28:41.881Z,2.83
2024-02-06T11:33:44.620Z,1.83
2024-02-06T11:38:47.249Z,2.30
2024-02-06T11:43:52.465Z,2.08
2024-02-06T11:48:55.230Z,2.20
2024-02-06T11:53:57.847Z,2.10
2024-02-06T11:59:01.738Z,1.85
2024-02-06T12:04:05.568Z,1.58
2024-02-06T12:09:10.857Z,1.53
2024-02-06T12:14:17.234Z,1.20
2024-02-06T12:19:19.941Z,0.90
2024-02-06T12:24:23.266Z,1.30
2024-02-06T12:29:27.267Z,1.40
2024-02-06T12:34:29.953Z,1.58
2024-02-06T12:39:32.804Z,1.90
2024-02-06T12:44:45.600Z,1.57
2024-02-06T12:49:52.758Z,1.40
2024-02-06T12:54:55.582Z,1.55
2024-02-06T12:59:59.487Z,2.37
2024-02-06T13:05:09.365Z,2.20
2024-02-06T13:10:15.595Z,2.60
2024-02-06T13:15:20.551Z,2.60
2024-02-06T13:20:23.252Z,2.60
2024-02-06T13:25:27.817Z,2.88
2024-02-06T13:30:35.764Z,2.70
2024-02-06T13:35:39.302Z,2.70
2024-02-06T13:40:41.947Z,3.10
2024-02-06T13:45:46.172Z,3.08
2024-02-06T13:50:49.247Z,3.43
2024-02-06T13:55:52.036Z,3.20
2024-02-06T14:00:56.166Z,2.78
2024-02-06T14:05:58.761Z,2.90
2024-02-06T14:11:01.663Z,2.97
2024-02-06T14:16:06.056Z,3.10
2024-02-06T14:21:08.618Z,3.08
2024-02-06T14:26:11.228Z,2.73
2024-02-06T14:31:15.114Z,3.08
2024-02-06T14:36:18.248Z,2.40
2024-02-06T14:41:21.296Z,2.60
2024-02-06T14:46:25.369Z,2.70
2024-02-06T14:51:28.718Z,2.20
2024-02-06T14:56:31.310Z,2.17
2024-02-06T15:01:35.546Z,2.30
2024-02-06T15:06:39.902Z,2.53
2024-02-06T15:11:43.258Z,2.50
2024-02-06T15:16:47.253Z,1.93
2024-02-06T15:21:51.633Z,8.25
2024-02-06T15:26:57.060Z,15.85
2024-02-06T15:32:01.414Z,3.00
2024-02-06T15:37:05.778Z,2.38
2024-02-06T15:42:08.497Z,7.90
2024-02-06T15:47:12.414Z,11.43
2024-02-06T15:52:17.195Z,9.20
2024-02-06T15:57:22.439Z,26.05
2024-02-06T16:02:27.399Z,16.23
2024-02-06T16:07:30.843Z,14.30
2024-02-06T16:12:41.625Z,21.63
2024-02-06T16:17:53.515Z,26.25
2024-02-06T16:22:56.050Z,22.50
2024-02-06T16:27:58.650Z,13.10
2024-02-06T16:33:02.648Z,18.65
2024-02-06T16:38:05.677Z,9.90
2024-02-06T16:43:08.348Z,15.50
2024-02-06T16:48:12.421Z,22.23
2024-02-06T16:53:15.001Z,17.98
2024-02-06T16:58:17.575Z,4.60
2024-02-06T17:03:21.579Z,26.63
2024-02-06T17:08:24.155Z,7.38
2024-02-06T17:13:26.824Z,27.77
2024-02-06T17:18:30.779Z,16.90
2024-02-06T17:23:33.320Z,5.82
2024-02-06T17:28:36.372Z,19.60
2024-02-06T17:33:40.384Z,16.37
2024-02-06T17:38:44.552Z,14.60
2024-02-06T17:43:47.488Z,16.65
2024-02-06T17:48:51.464Z,34.70
2024-02-06T17:53:54.035Z,19.42
2024-02-06T17:58:57.057Z,5.80
2024-02-06T18:04:01.172Z,3.13
2024-02-06T18:09:03.909Z,5.60
2024-02-06T18:14:06.543Z,2.88
2024-02-06T18:19:10.790Z,4.77
2024-02-06T18:24:13.632Z,2.87
2024-02-06T18:29:16.198Z,2.63
2024-02-06T18:34:21.287Z,2.22
2024-02-06T18:39:24.288Z,1.53
2024-02-06T18:44:26.836Z,1.90
2024-02-06T18:49:30.775Z,1.70
2024-02-06T18:54:35.179Z,1.80
2024-02-06T18:59:37.996Z,2.10
2024-02-06T19:04:42.196Z,1.48
2024-02-06T19:09:45.114Z,1.57
2024-02-06T19:14:47.906Z,1.37
2024-02-06T19:19:52.027Z,1.80
2024-02-06T19:24:54.762Z,1.60
2024-02-06T19:29:57.339Z,1.30
2024-02-06T19:35:06.314Z,1.45
2024-02-06T19:40:12.966Z,1.40
2024-02-06T19:45:15.973Z,1.40
2024-02-06T19:50:21.033Z,1.60
2024-02-06T19:55:23.923Z,1.17
2024-02-06T20:00:26.601Z,1.43
2024-02-06T20:05:30.632Z,0.90
2024-02-06T20:10:34.300Z,0.40
2024-02-06T20:15:39.512Z,0.50
2024-02-06T20:20:43.633Z,0.40
2024-02-06T20:25:48.282Z,0.45
2024-02-06T20:30:51.731Z,0.40
2024-02-06T20:35:55.582Z,0.50
2024-02-06T20:40:59.527Z,0.50
2024-02-06T20:46:02.484Z,0.50
2024-02-06T20:51:06.763Z,0.60
2024-02-06T20:56:09.300Z,0.53
2024-02-06T21:01:13.535Z,0.50
2024-02-06T21:06:17.811Z,0.50
2024-02-06T21:11:20.364Z,0.50
2024-02-06T21:16:22.936Z,0.50
2024-02-06T21:21:27.401Z,0.60
2024-02-06T21:26:29.925Z,0.57
2024-02-06T21:31:33.100Z,0.52
2024-02-06T21:36:41.057Z,0.70
2024-02-06T21:41:46.888Z,0.60
2024-02-06T21:46:49.790Z,0.67
2024-02-06T21:51:53.814Z,0.80
2024-02-06T21:56:56.412Z,0.55
2024-02-06T22:01:59.339Z,0.53
2024-02-06T22:07:03.299Z,1.23
2024-02-06T22:12:06.850Z,0.60
2024-02-06T22:17:09.679Z,0.70
2024-02-06T22:22:13.689Z,0.70
2024-02-06T22:27:17.277Z,0.68
2024-02-06T22:32:19.850Z,0.80
2024-02-06T22:37:23.998Z,1.20
2024-02-06T22:42:26.577Z,0.90
2024-02-06T22:47:29.169Z,1.05
2024-02-06T22:52:33.136Z,1.03
2024-02-06T22:57:35.673Z,1.25
2024-02-06T23:02:38.209Z,0.98
2024-02-06T23:07:42.151Z,1.30
2024-02-06T23:12:44.743Z,1.17
2024-02-06T23:17:48.256Z,0.68
2024-02-06T23:22:52.796Z,0.90
2024-02-06T23:27:55.337Z,0.80
2024-02-06T23:32:57.922Z,0.95
2024-02-06T23:38:02.435Z,1.40
2024-02-06T23:43:05.732Z,0.90
2024-02-06T23:48:09.492Z,1.25
2024-02-06T23:53:13.925Z,1.00
2024-02-06T23:58:16.529Z,1.00
